sensor_id;sensor_type;location;lat;lon;timestamp;P1;durP1;ratioP1;P2;durP2;ratioP2
69323;SDS011;56470;47.350;8.718;2023-11-18T00:00:29;2.20;;;1.10;;
69323;SDS011;56470;47.350;8.718;2023-11-18T00:02:54;3.13;;;1.23;;
69323;SDS011;56470;47.350;8.718;2023-11-18T00:05:20;3.93;;;1.37;;
69323;SDS011;56470;47.350;8.718;2023-11-18T00:07:46;2.53;;;1.50;;
69323;SDS011;56470;47.350;8.718;2023-11-18T00:10:11;2.07;;;1.40;;
69323;SDS011;56470;47.350;8.718;2023-11-18T00:12:37;3.07;;;1.40;;
69323;SDS011;56470;47.350;8.718;2023-11-18T00:15:06;2.55;;;1.17;;
69323;SDS011;56470;47.350;8.718;2023-11-18T00:17:34;2.55;;;0.77;;
69323;SDS011;56470;47.350;8.718;2023-11-18T00:19:59;2.30;;;1.33;;
69323;SDS011;56470;47.350;8.718;2023-11-18T00:22:24;2.87;;;1.70;;
69323;SDS011;56470;47.350;8.718;2023-11-18T00:24:50;3.60;;;1.73;;
69323;SDS011;56470;47.350;8.718;2023-11-18T00:27:17;2.50;;;1.60;;
69323;SDS011;56470;47.350;8.718;2023-11-18T00:29:42;2.13;;;1.23;;
69323;SDS011;56470;47.350;8.718;2023-11-18T00:32:08;3.33;;;0.95;;
69323;SDS011;56470;47.350;8.718;2023-11-18T00:34:34;2.60;;;1.23;;
69323;SDS011;56470;47.350;8.718;2023-11-18T00:36:59;2.95;;;1.33;;
69323;SDS011;56470;47.350;8.718;2023-11-18T00:39:25;2.20;;;1.00;;
69323;SDS011;56470;47.350;8.718;2023-11-18T00:41:52;2.65;;;1.30;;
69323;SDS011;56470;47.350;8.718;2023-11-18T00:44:17;2.03;;;0.90;;
69323;SDS011;56470;47.350;8.718;2023-11-18T00:46:43;2.10;;;1.30;;
69323;SDS011;56470;47.350;8.718;2023-11-18T00:49:08;2.00;;;1.13;;
69323;SDS011;56470;47.350;8.718;2023-11-18T00:51:35;2.30;;;1.50;;
69323;SDS011;56470;47.350;8.718;2023-11-18T00:54:02;2.33;;;1.52;;
69323;SDS011;56470;47.350;8.718;2023-11-18T00:56:30;2.20;;;1.60;;
69323;SDS011;56470;47.350;8.718;2023-11-18T00:58:56;3.00;;;1.50;;
69323;SDS011;56470;47.350;8.718;2023-11-18T01:01:23;2.47;;;1.50;;
69323;SDS011;56470;47.350;8.718;2023-11-18T01:03:48;2.33;;;1.33;;
69323;SDS011;56470;47.350;8.718;2023-11-18T01:06:13;1.97;;;1.30;;
69323;SDS011;56470;47.350;8.718;2023-11-18T01:08:45;3.10;;;1.30;;
69323;SDS011;56470;47.350;8.718;2023-11-18T01:11:10;2.10;;;1.35;;
69323;SDS011;56470;47.350;8.718;2023-11-18T01:13:37;1.90;;;1.42;;
69323;SDS011;56470;47.350;8.718;2023-11-18T01:16:02;2.00;;;1.20;;
69323;SDS011;56470;47.350;8.718;2023-11-18T01:18:29;1.98;;;1.20;;
69323;SDS011;56470;47.350;8.718;2023-11-18T01:20:54;3.10;;;1.10;;
69323;SDS011;56470;47.350;8.718;2023-11-18T01:23:20;3.40;;;1.60;;
69323;SDS011;56470;47.350;8.718;2023-11-18T01:25:45;3.38;;;1.00;;
69323;SDS011;56470;47.350;8.718;2023-11-18T01:28:10;2.97;;;1.40;;
69323;SDS011;56470;47.350;8.718;2023-11-18T01:30:40;2.75;;;1.60;;
69323;SDS011;56470;47.350;8.718;2023-11-18T01:33:06;3.60;;;2.10;;
69323;SDS011;56470;47.350;8.718;2023-11-18T01:35:33;2.97;;;1.60;;
69323;SDS011;56470;47.350;8.718;2023-11-18T01:37:58;2.03;;;1.13;;
69323;SDS011;56470;47.350;8.718;2023-11-18T01:40:23;2.97;;;1.50;;
69323;SDS011;56470;47.350;8.718;2023-11-18T01:42:49;2.47;;;1.67;;
69323;SDS011;56470;47.350;8.718;2023-11-18T01:45:14;2.43;;;1.23;;
69323;SDS011;56470;47.350;8.718;2023-11-18T01:47:41;4.63;;;1.60;;
69323;SDS011;56470;47.350;8.718;2023-11-18T01:50:09;3.47;;;1.70;;
69323;SDS011;56470;47.350;8.718;2023-11-18T01:52:36;3.07;;;1.70;;
69323;SDS011;56470;47.350;8.718;2023-11-18T01:55:02;2.75;;;1.80;;
69323;SDS011;56470;47.350;8.718;2023-11-18T01:57:31;2.83;;;1.40;;
69323;SDS011;56470;47.350;8.718;2023-11-18T01:59:58;2.70;;;1.58;;
69323;SDS011;56470;47.350;8.718;2023-11-18T02:02:23;2.87;;;1.97;;
69323;SDS011;56470;47.350;8.718;2023-11-18T02:04:50;2.53;;;1.50;;
69323;SDS011;56470;47.350;8.718;2023-11-18T02:07:15;2.93;;;1.50;;
69323;SDS011;56470;47.350;8.718;2023-11-18T02:09:41;2.57;;;1.47;;
69323;SDS011;56470;47.350;8.718;2023-11-18T02:12:16;3.05;;;1.10;;
69323;SDS011;56470;47.350;8.718;2023-11-18T02:14:54;2.95;;;1.80;;
69323;SDS011;56470;47.350;8.718;2023-11-18T02:17:22;2.80;;;1.60;;
69323;SDS011;56470;47.350;8.718;2023-11-18T02:19:53;4.15;;;1.48;;
69323;SDS011;56470;47.350;8.718;2023-11-18T02:22:21;2.60;;;1.37;;
69323;SDS011;56470;47.350;8.718;2023-11-18T02:24:47;3.30;;;1.65;;
69323;SDS011;56470;47.350;8.718;2023-11-18T02:27:13;2.40;;;1.50;;
69323;SDS011;56470;47.350;8.718;2023-11-18T02:29:39;2.83;;;1.57;;
69323;SDS011;56470;47.350;8.718;2023-11-18T02:35:25;3.65;;;1.30;;
69323;SDS011;56470;47.350;8.718;2023-11-18T02:38:00;3.08;;;1.60;;
69323;SDS011;56470;47.350;8.718;2023-11-18T02:40:35;2.33;;;1.37;;
69323;SDS011;56470;47.350;8.718;2023-11-18T02:43:03;2.97;;;1.60;;
69323;SDS011;56470;47.350;8.718;2023-11-18T02:45:32;4.10;;;1.65;;
69323;SDS011;56470;47.350;8.718;2023-11-18T02:48:00;2.45;;;1.60;;
69323;SDS011;56470;47.350;8.718;2023-11-18T02:50:26;2.80;;;1.57;;
69323;SDS011;56470;47.350;8.718;2023-11-18T02:52:52;2.58;;;1.88;;
69323;SDS011;56470;47.350;8.718;2023-11-18T02:55:18;2.35;;;1.70;;
69323;SDS011;56470;47.350;8.718;2023-11-18T02:57:46;3.80;;;1.70;;
69323;SDS011;56470;47.350;8.718;2023-11-18T03:00:12;2.87;;;1.33;;
69323;SDS011;56470;47.350;8.718;2023-11-18T03:02:43;3.17;;;1.98;;
69323;SDS011;56470;47.350;8.718;2023-11-18T03:05:09;3.92;;;1.60;;
69323;SDS011;56470;47.350;8.718;2023-11-18T03:07:40;2.77;;;1.50;;
69323;SDS011;56470;47.350;8.718;2023-11-18T03:10:06;3.33;;;1.50;;
69323;SDS011;56470;47.350;8.718;2023-11-18T03:12:37;3.13;;;1.60;;
69323;SDS011;56470;47.350;8.718;2023-11-18T03:15:06;2.92;;;1.80;;
69323;SDS011;56470;47.350;8.718;2023-11-18T03:17:34;2.97;;;1.73;;
69323;SDS011;56470;47.350;8.718;2023-11-18T03:19:59;4.27;;;2.20;;
69323;SDS011;56470;47.350;8.718;2023-11-18T03:22:25;4.00;;;1.70;;
69323;SDS011;56470;47.350;8.718;2023-11-18T03:24:50;3.08;;;1.67;;
69323;SDS011;56470;47.350;8.718;2023-11-18T03:27:16;2.37;;;1.20;;
69323;SDS011;56470;47.350;8.718;2023-11-18T03:29:44;3.45;;;1.60;;
69323;SDS011;56470;47.350;8.718;2023-11-18T03:32:11;3.53;;;1.50;;
69323;SDS011;56470;47.350;8.718;2023-11-18T03:34:37;4.28;;;2.22;;
69323;SDS011;56470;47.350;8.718;2023-11-18T03:37:03;2.90;;;1.83;;
69323;SDS011;56470;47.350;8.718;2023-11-18T03:39:28;5.00;;;2.10;;
69323;SDS011;56470;47.350;8.718;2023-11-18T03:41:54;2.60;;;1.50;;
69323;SDS011;56470;47.350;8.718;2023-11-18T03:44:22;4.22;;;1.98;;
69323;SDS011;56470;47.350;8.718;2023-11-18T03:46:49;3.40;;;2.15;;
69323;SDS011;56470;47.350;8.718;2023-11-18T03:49:14;2.83;;;1.83;;
69323;SDS011;56470;47.350;8.718;2023-11-18T03:51:40;4.73;;;2.10;;
69323;SDS011;56470;47.350;8.718;2023-11-18T03:54:05;3.47;;;2.23;;
69323;SDS011;56470;47.350;8.718;2023-11-18T03:56:33;6.82;;;2.67;;
69323;SDS011;56470;47.350;8.718;2023-11-18T03:58:59;3.40;;;2.10;;
69323;SDS011;56470;47.350;8.718;2023-11-18T04:01:24;3.30;;;1.70;;
69323;SDS011;56470;47.350;8.718;2023-11-18T04:03:53;5.20;;;2.50;;
69323;SDS011;56470;47.350;8.718;2023-11-18T04:06:20;3.85;;;2.42;;
69323;SDS011;56470;47.350;8.718;2023-11-18T04:08:49;4.40;;;2.03;;
69323;SDS011;56470;47.350;8.718;2023-11-18T04:11:15;6.23;;;3.13;;
69323;SDS011;56470;47.350;8.718;2023-11-18T04:13:41;8.45;;;4.18;;
69323;SDS011;56470;47.350;8.718;2023-11-18T04:16:12;5.88;;;2.80;;
69323;SDS011;56470;47.350;8.718;2023-11-18T04:18:40;4.60;;;3.10;;
69323;SDS011;56470;47.350;8.718;2023-11-18T04:21:06;3.65;;;1.90;;
69323;SDS011;56470;47.350;8.718;2023-11-18T04:23:33;4.18;;;2.17;;
69323;SDS011;56470;47.350;8.718;2023-11-18T04:26:02;4.22;;;2.35;;
69323;SDS011;56470;47.350;8.718;2023-11-18T04:28:28;6.13;;;2.45;;
69323;SDS011;56470;47.350;8.718;2023-11-18T04:30:54;5.30;;;1.93;;
69323;SDS011;56470;47.350;8.718;2023-11-18T04:33:20;3.03;;;1.67;;
69323;SDS011;56470;47.350;8.718;2023-11-18T04:35:48;3.23;;;2.20;;
69323;SDS011;56470;47.350;8.718;2023-11-18T04:38:13;5.23;;;1.83;;
69323;SDS011;56470;47.350;8.718;2023-11-18T04:40:39;3.78;;;2.00;;
69323;SDS011;56470;47.350;8.718;2023-11-18T04:43:06;2.97;;;1.60;;
69323;SDS011;56470;47.350;8.718;2023-11-18T04:45:31;3.30;;;2.17;;
69323;SDS011;56470;47.350;8.718;2023-11-18T04:47:57;4.33;;;2.30;;
69323;SDS011;56470;47.350;8.718;2023-11-18T04:50:24;3.50;;;1.85;;
69323;SDS011;56470;47.350;8.718;2023-11-18T04:52:49;4.97;;;2.40;;
69323;SDS011;56470;47.350;8.718;2023-11-18T04:55:15;2.90;;;1.77;;
69323;SDS011;56470;47.350;8.718;2023-11-18T04:57:40;3.90;;;2.17;;
69323;SDS011;56470;47.350;8.718;2023-11-18T05:00:06;3.67;;;1.77;;
69323;SDS011;56470;47.350;8.718;2023-11-18T05:02:36;4.53;;;2.20;;
69323;SDS011;56470;47.350;8.718;2023-11-18T05:05:03;4.55;;;2.55;;
69323;SDS011;56470;47.350;8.718;2023-11-18T05:07:30;5.00;;;2.45;;
69323;SDS011;56470;47.350;8.718;2023-11-18T05:09:55;5.57;;;2.27;;
69323;SDS011;56470;47.350;8.718;2023-11-18T05:12:21;3.93;;;2.13;;
69323;SDS011;56470;47.350;8.718;2023-11-18T05:14:47;3.75;;;2.25;;
69323;SDS011;56470;47.350;8.718;2023-11-18T05:17:14;4.72;;;2.65;;
69323;SDS011;56470;47.350;8.718;2023-11-18T05:19:40;6.13;;;2.28;;
69323;SDS011;56470;47.350;8.718;2023-11-18T05:22:06;4.83;;;2.13;;
69323;SDS011;56470;47.350;8.718;2023-11-18T05:24:31;4.47;;;2.23;;
69323;SDS011;56470;47.350;8.718;2023-11-18T05:26:57;6.03;;;2.03;;
69323;SDS011;56470;47.350;8.718;2023-11-18T05:29:25;4.47;;;2.23;;
69323;SDS011;56470;47.350;8.718;2023-11-18T05:31:52;4.88;;;2.10;;
69323;SDS011;56470;47.350;8.718;2023-11-18T05:34:17;5.70;;;2.20;;
69323;SDS011;56470;47.350;8.718;2023-11-18T05:36:45;5.07;;;1.90;;
69323;SDS011;56470;47.350;8.718;2023-11-18T05:39:11;4.28;;;2.58;;
69323;SDS011;56470;47.350;8.718;2023-11-18T05:41:36;5.43;;;2.70;;
69323;SDS011;56470;47.350;8.718;2023-11-18T05:44:04;3.97;;;2.78;;
69323;SDS011;56470;47.350;8.718;2023-11-18T05:46:33;5.15;;;2.50;;
69323;SDS011;56470;47.350;8.718;2023-11-18T05:49:01;6.60;;;2.40;;
69323;SDS011;56470;47.350;8.718;2023-11-18T05:51:32;4.43;;;2.60;;
69323;SDS011;56470;47.350;8.718;2023-11-18T05:53:57;5.60;;;2.57;;
69323;SDS011;56470;47.350;8.718;2023-11-18T05:56:23;4.13;;;2.60;;
69323;SDS011;56470;47.350;8.718;2023-11-18T05:58:49;5.75;;;2.80;;
69323;SDS011;56470;47.350;8.718;2023-11-18T06:01:15;3.65;;;2.00;;
69323;SDS011;56470;47.350;8.718;2023-11-18T06:03:42;3.87;;;2.23;;
69323;SDS011;56470;47.350;8.718;2023-11-18T06:06:08;4.72;;;2.22;;
69323;SDS011;56470;47.350;8.718;2023-11-18T06:08:35;4.03;;;2.22;;
69323;SDS011;56470;47.350;8.718;2023-11-18T06:11:01;4.65;;;2.00;;
69323;SDS011;56470;47.350;8.718;2023-11-18T06:13:37;4.68;;;2.15;;
69323;SDS011;56470;47.350;8.718;2023-11-18T06:16:07;4.30;;;2.60;;
69323;SDS011;56470;47.350;8.718;2023-11-18T06:18:46;4.22;;;2.30;;
69323;SDS011;56470;47.350;8.718;2023-11-18T06:21:13;4.38;;;2.35;;
69323;SDS011;56470;47.350;8.718;2023-11-18T06:23:45;5.40;;;2.70;;
69323;SDS011;56470;47.350;8.718;2023-11-18T06:26:12;3.30;;;1.92;;
69323;SDS011;56470;47.350;8.718;2023-11-18T06:28:39;4.70;;;2.03;;
69323;SDS011;56470;47.350;8.718;2023-11-18T06:31:05;3.88;;;2.15;;
69323;SDS011;56470;47.350;8.718;2023-11-18T06:33:36;5.13;;;2.20;;
69323;SDS011;56470;47.350;8.718;2023-11-18T06:36:02;4.10;;;2.25;;
69323;SDS011;56470;47.350;8.718;2023-11-18T06:38:29;4.65;;;2.55;;
69323;SDS011;56470;47.350;8.718;2023-11-18T06:40:55;3.83;;;2.27;;
69323;SDS011;56470;47.350;8.718;2023-11-18T06:43:23;4.40;;;2.55;;
69323;SDS011;56470;47.350;8.718;2023-11-18T06:45:49;3.90;;;2.22;;
69323;SDS011;56470;47.350;8.718;2023-11-18T06:48:15;4.03;;;2.47;;
69323;SDS011;56470;47.350;8.718;2023-11-18T06:50:45;5.20;;;2.45;;
69323;SDS011;56470;47.350;8.718;2023-11-18T06:53:11;4.32;;;2.47;;
69323;SDS011;56470;47.350;8.718;2023-11-18T06:55:37;3.57;;;2.13;;
69323;SDS011;56470;47.350;8.718;2023-11-18T06:58:02;4.77;;;2.33;;
69323;SDS011;56470;47.350;8.718;2023-11-18T07:00:28;3.83;;;1.92;;
69323;SDS011;56470;47.350;8.718;2023-11-18T07:02:54;5.07;;;2.30;;
69323;SDS011;56470;47.350;8.718;2023-11-18T07:05:20;3.30;;;2.30;;
69323;SDS011;56470;47.350;8.718;2023-11-18T07:07:48;4.07;;;2.38;;
69323;SDS011;56470;47.350;8.718;2023-11-18T07:10:14;3.40;;;2.13;;
69323;SDS011;56470;47.350;8.718;2023-11-18T07:12:43;6.23;;;2.77;;
69323;SDS011;56470;47.350;8.718;2023-11-18T07:15:09;5.20;;;2.30;;
69323;SDS011;56470;47.350;8.718;2023-11-18T07:17:35;4.23;;;2.60;;
69323;SDS011;56470;47.350;8.718;2023-11-18T07:20:01;3.53;;;1.95;;
69323;SDS011;56470;47.350;8.718;2023-11-18T07:22:26;5.60;;;2.13;;
69323;SDS011;56470;47.350;8.718;2023-11-18T07:24:51;5.60;;;2.20;;
69323;SDS011;56470;47.350;8.718;2023-11-18T07:27:17;5.35;;;2.70;;
69323;SDS011;56470;47.350;8.718;2023-11-18T07:29:42;5.07;;;2.67;;
69323;SDS011;56470;47.350;8.718;2023-11-18T07:32:10;4.38;;;1.95;;
69323;SDS011;56470;47.350;8.718;2023-11-18T07:34:36;3.47;;;2.00;;
69323;SDS011;56470;47.350;8.718;2023-11-18T07:37:03;3.75;;;2.10;;
69323;SDS011;56470;47.350;8.718;2023-11-18T07:39:28;5.35;;;2.90;;
69323;SDS011;56470;47.350;8.718;2023-11-18T07:42:09;4.73;;;2.77;;
69323;SDS011;56470;47.350;8.718;2023-11-18T07:44:35;5.70;;;2.83;;
69323;SDS011;56470;47.350;8.718;2023-11-18T07:47:00;3.63;;;2.47;;
69323;SDS011;56470;47.350;8.718;2023-11-18T07:49:26;4.37;;;2.50;;
69323;SDS011;56470;47.350;8.718;2023-11-18T07:51:51;4.57;;;2.58;;
69323;SDS011;56470;47.350;8.718;2023-11-18T07:54:18;8.60;;;3.43;;
69323;SDS011;56470;47.350;8.718;2023-11-18T07:56:43;5.57;;;2.70;;
69323;SDS011;56470;47.350;8.718;2023-11-18T07:59:12;4.68;;;2.35;;
69323;SDS011;56470;47.350;8.718;2023-11-18T08:01:41;5.40;;;3.30;;
69323;SDS011;56470;47.350;8.718;2023-11-18T08:04:09;5.40;;;3.20;;
69323;SDS011;56470;47.350;8.718;2023-11-18T08:06:35;4.55;;;2.75;;
69323;SDS011;56470;47.350;8.718;2023-11-18T08:09:00;5.03;;;2.43;;
69323;SDS011;56470;47.350;8.718;2023-11-18T08:11:26;4.13;;;2.63;;
69323;SDS011;56470;47.350;8.718;2023-11-18T08:13:51;3.70;;;2.30;;
69323;SDS011;56470;47.350;8.718;2023-11-18T08:16:17;11.00;;;4.70;;
69323;SDS011;56470;47.350;8.718;2023-11-18T08:18:43;25.50;;;8.53;;
69323;SDS011;56470;47.350;8.718;2023-11-18T08:21:09;13.55;;;5.97;;
69323;SDS011;56470;47.350;8.718;2023-11-18T08:23:34;12.30;;;5.10;;
69323;SDS011;56470;47.350;8.718;2023-11-18T08:26:00;10.82;;;4.70;;
69323;SDS011;56470;47.350;8.718;2023-11-18T08:28:26;11.00;;;5.32;;
69323;SDS011;56470;47.350;8.718;2023-11-18T08:30:52;8.10;;;3.73;;
69323;SDS011;56470;47.350;8.718;2023-11-18T08:33:18;7.57;;;4.17;;
69323;SDS011;56470;47.350;8.718;2023-11-18T08:35:45;7.10;;;3.55;;
69323;SDS011;56470;47.350;8.718;2023-11-18T08:38:11;6.05;;;3.90;;
69323;SDS011;56470;47.350;8.718;2023-11-18T08:40:37;5.15;;;3.17;;
69323;SDS011;56470;47.350;8.718;2023-11-18T08:43:03;5.85;;;3.95;;
69323;SDS011;56470;47.350;8.718;2023-11-18T08:45:32;6.17;;;3.83;;
69323;SDS011;56470;47.350;8.718;2023-11-18T08:48:01;5.25;;;3.53;;
69323;SDS011;56470;47.350;8.718;2023-11-18T08:50:35;5.45;;;3.60;;
69323;SDS011;56470;47.350;8.718;2023-11-18T08:53:09;5.73;;;3.00;;
69323;SDS011;56470;47.350;8.718;2023-11-18T08:55:52;4.93;;;2.97;;
69323;SDS011;56470;47.350;8.718;2023-11-18T08:58:20;4.38;;;2.40;;
69323;SDS011;56470;47.350;8.718;2023-11-18T09:01:06;5.60;;;2.88;;
69323;SDS011;56470;47.350;8.718;2023-11-18T09:07:09;6.40;;;2.90;;
69323;SDS011;56470;47.350;8.718;2023-11-18T09:09:52;4.05;;;2.53;;
69323;SDS011;56470;47.350;8.718;2023-11-18T09:12:33;4.90;;;3.15;;
69323;SDS011;56470;47.350;8.718;2023-11-18T09:15:16;4.47;;;2.42;;
69323;SDS011;56470;47.350;8.718;2023-11-18T09:17:47;3.65;;;1.92;;
69323;SDS011;56470;47.350;8.718;2023-11-18T09:20:15;2.27;;;1.27;;
69323;SDS011;56470;47.350;8.718;2023-11-18T10:35:32;2.53;;;1.83;;
69323;SDS011;56470;47.350;8.718;2023-11-18T10:38:16;3.63;;;1.70;;
69323;SDS011;56470;47.350;8.718;2023-11-18T10:41:01;2.83;;;1.63;;
69323;SDS011;56470;47.350;8.718;2023-11-18T10:47:42;1.98;;;1.20;;
69323;SDS011;56470;47.350;8.718;2023-11-18T11:01:39;1.90;;;1.13;;
69323;SDS011;56470;47.350;8.718;2023-11-18T11:04:31;3.42;;;1.38;;
69323;SDS011;56470;47.350;8.718;2023-11-18T11:07:23;2.72;;;1.88;;
69323;SDS011;56470;47.350;8.718;2023-11-18T11:09:49;2.20;;;1.58;;
69323;SDS011;56470;47.350;8.718;2023-11-18T11:12:21;4.25;;;1.98;;
69323;SDS011;56470;47.350;8.718;2023-11-18T11:14:59;4.33;;;1.93;;
69323;SDS011;56470;47.350;8.718;2023-11-18T11:17:32;3.85;;;1.80;;
69323;SDS011;56470;47.350;8.718;2023-11-18T11:20:05;2.83;;;1.98;;
69323;SDS011;56470;47.350;8.718;2023-11-18T11:26:26;3.00;;;1.63;;
69323;SDS011;56470;47.350;8.718;2023-11-18T11:32:18;3.38;;;1.70;;
69323;SDS011;56470;47.350;8.718;2023-11-18T11:35:03;3.35;;;1.98;;
69323;SDS011;56470;47.350;8.718;2023-11-18T11:37:41;2.30;;;1.40;;
69323;SDS011;56470;47.350;8.718;2023-11-18T11:40:18;2.60;;;1.60;;
69323;SDS011;56470;47.350;8.718;2023-11-18T11:42:50;2.23;;;1.27;;
69323;SDS011;56470;47.350;8.718;2023-11-18T11:45:20;2.58;;;1.50;;
69323;SDS011;56470;47.350;8.718;2023-11-18T11:47:56;2.42;;;1.30;;
69323;SDS011;56470;47.350;8.718;2023-11-18T11:50:42;3.95;;;1.48;;
69323;SDS011;56470;47.350;8.718;2023-11-18T11:53:15;2.40;;;1.55;;
69323;SDS011;56470;47.350;8.718;2023-11-18T11:55:47;2.73;;;1.53;;
69323;SDS011;56470;47.350;8.718;2023-11-18T12:00:47;3.22;;;1.48;;
69323;SDS011;56470;47.350;8.718;2023-11-18T12:11:30;1.93;;;1.30;;
69323;SDS011;56470;47.350;8.718;2023-11-18T13:12:34;2.28;;;1.15;;
69323;SDS011;56470;47.350;8.718;2023-11-18T13:15:01;2.47;;;1.70;;
69323;SDS011;56470;47.350;8.718;2023-11-18T13:17:26;2.47;;;1.83;;
69323;SDS011;56470;47.350;8.718;2023-11-18T13:19:54;4.07;;;1.48;;
69323;SDS011;56470;47.350;8.718;2023-11-18T13:22:22;2.92;;;1.52;;
69323;SDS011;56470;47.350;8.718;2023-11-18T13:24:49;2.53;;;1.50;;
69323;SDS011;56470;47.350;8.718;2023-11-18T13:27:15;2.50;;;1.48;;
69323;SDS011;56470;47.350;8.718;2023-11-18T13:29:45;3.07;;;1.30;;
69323;SDS011;56470;47.350;8.718;2023-11-18T13:32:15;5.80;;;1.77;;
69323;SDS011;56470;47.350;8.718;2023-11-18T13:34:41;3.00;;;1.75;;
69323;SDS011;56470;47.350;8.718;2023-11-18T13:37:07;3.72;;;1.85;;
69323;SDS011;56470;47.350;8.718;2023-11-18T13:39:33;3.33;;;1.85;;
69323;SDS011;56470;47.350;8.718;2023-11-18T13:42:17;1.90;;;1.33;;
69323;SDS011;56470;47.350;8.718;2023-11-18T13:44:51;4.45;;;2.25;;
69323;SDS011;56470;47.350;8.718;2023-11-18T13:47:17;2.58;;;1.77;;
69323;SDS011;56470;47.350;8.718;2023-11-18T13:49:43;3.55;;;2.15;;
69323;SDS011;56470;47.350;8.718;2023-11-18T13:52:10;2.95;;;1.52;;
69323;SDS011;56470;47.350;8.718;2023-11-18T13:54:41;2.07;;;1.07;;
69323;SDS011;56470;47.350;8.718;2023-11-18T13:57:10;3.30;;;1.83;;
69323;SDS011;56470;47.350;8.718;2023-11-18T13:59:36;3.92;;;1.88;;
69323;SDS011;56470;47.350;8.718;2023-11-18T14:02:05;3.03;;;1.92;;
69323;SDS011;56470;47.350;8.718;2023-11-18T14:04:31;2.40;;;1.73;;
69323;SDS011;56470;47.350;8.718;2023-11-18T14:06:59;2.67;;;1.73;;
69323;SDS011;56470;47.350;8.718;2023-11-18T14:09:27;2.85;;;1.85;;
69323;SDS011;56470;47.350;8.718;2023-11-18T14:11:55;2.35;;;1.88;;
69323;SDS011;56470;47.350;8.718;2023-11-18T14:14:21;4.50;;;1.77;;
69323;SDS011;56470;47.350;8.718;2023-11-18T14:16:48;2.35;;;1.48;;
69323;SDS011;56470;47.350;8.718;2023-11-18T14:19:17;4.73;;;2.13;;
69323;SDS011;56470;47.350;8.718;2023-11-18T14:22:00;3.05;;;1.65;;
69323;SDS011;56470;47.350;8.718;2023-11-18T14:24:28;2.85;;;1.38;;
69323;SDS011;56470;47.350;8.718;2023-11-18T14:27:01;2.42;;;1.85;;
69323;SDS011;56470;47.350;8.718;2023-11-18T14:29:29;3.65;;;1.45;;
69323;SDS011;56470;47.350;8.718;2023-11-18T14:31:55;4.07;;;2.67;;
69323;SDS011;56470;47.350;8.718;2023-11-18T14:34:36;4.45;;;2.22;;
69323;SDS011;56470;47.350;8.718;2023-11-18T14:37:07;3.17;;;1.50;;
69323;SDS011;56470;47.350;8.718;2023-11-18T14:46:36;3.67;;;1.95;;
69323;SDS011;56470;47.350;8.718;2023-11-18T14:53:42;2.70;;;1.50;;
69323;SDS011;56470;47.350;8.718;2023-11-18T14:59:38;2.33;;;1.58;;
69323;SDS011;56470;47.350;8.718;2023-11-18T15:02:54;1.88;;;1.35;;
69323;SDS011;56470;47.350;8.718;2023-11-18T15:05:28;2.95;;;1.50;;
69323;SDS011;56470;47.350;8.718;2023-11-18T15:07:56;2.97;;;1.43;;
69323;SDS011;56470;47.350;8.718;2023-11-18T15:13:27;1.95;;;1.02;;
69323;SDS011;56470;47.350;8.718;2023-11-18T15:16:23;2.13;;;1.20;;
69323;SDS011;56470;47.350;8.718;2023-11-18T15:18:48;1.70;;;1.20;;
69323;SDS011;56470;47.350;8.718;2023-11-18T15:21:17;2.38;;;2.17;;
69323;SDS011;56470;47.350;8.718;2023-11-18T15:23:43;2.78;;;1.23;;
69323;SDS011;56470;47.350;8.718;2023-11-18T15:29:30;1.85;;;1.05;;
69323;SDS011;56470;47.350;8.718;2023-11-18T15:32:03;3.00;;;1.30;;
69323;SDS011;56470;47.350;8.718;2023-11-18T15:34:29;1.27;;;0.82;;
69323;SDS011;56470;47.350;8.718;2023-11-18T15:36:56;2.00;;;1.30;;
69323;SDS011;56470;47.350;8.718;2023-11-18T15:39:25;2.15;;;1.38;;
69323;SDS011;56470;47.350;8.718;2023-11-18T15:41:54;2.35;;;1.65;;
69323;SDS011;56470;47.350;8.718;2023-11-18T15:44:19;2.33;;;1.40;;
69323;SDS011;56470;47.350;8.718;2023-11-18T15:46:48;3.13;;;1.90;;
69323;SDS011;56470;47.350;8.718;2023-11-18T15:49:18;1.95;;;1.50;;
69323;SDS011;56470;47.350;8.718;2023-11-18T15:51:45;2.55;;;1.42;;
69323;SDS011;56470;47.350;8.718;2023-11-18T15:54:11;2.15;;;1.40;;
69323;SDS011;56470;47.350;8.718;2023-11-18T15:56:40;1.93;;;0.93;;
69323;SDS011;56470;47.350;8.718;2023-11-18T15:59:07;2.83;;;1.25;;
69323;SDS011;56470;47.350;8.718;2023-11-18T16:01:33;7.05;;;2.00;;
69323;SDS011;56470;47.350;8.718;2023-11-18T16:03:59;3.42;;;1.65;;
69323;SDS011;56470;47.350;8.718;2023-11-18T16:06:25;2.27;;;1.30;;
69323;SDS011;56470;47.350;8.718;2023-11-18T16:09:00;3.03;;;1.77;;
69323;SDS011;56470;47.350;8.718;2023-11-18T16:11:27;3.63;;;1.35;;
69323;SDS011;56470;47.350;8.718;2023-11-18T16:13:58;4.07;;;1.90;;
69323;SDS011;56470;47.350;8.718;2023-11-18T16:20:04;5.30;;;1.90;;
69323;SDS011;56470;47.350;8.718;2023-11-18T16:22:31;4.22;;;2.35;;
69323;SDS011;56470;47.350;8.718;2023-11-18T16:25:00;3.85;;;2.30;;
69323;SDS011;56470;47.350;8.718;2023-11-18T16:27:25;2.90;;;1.50;;
69323;SDS011;56470;47.350;8.718;2023-11-18T16:29:51;4.90;;;1.40;;
69323;SDS011;56470;47.350;8.718;2023-11-18T16:32:17;3.08;;;1.50;;
69323;SDS011;56470;47.350;8.718;2023-11-18T16:34:42;1.87;;;1.23;;
69323;SDS011;56470;47.350;8.718;2023-11-18T16:37:07;2.57;;;1.43;;
69323;SDS011;56470;47.350;8.718;2023-11-18T16:39:33;1.73;;;0.93;;
69323;SDS011;56470;47.350;8.718;2023-11-18T16:41:58;2.40;;;1.60;;
69323;SDS011;56470;47.350;8.718;2023-11-18T16:44:24;3.67;;;2.07;;
69323;SDS011;56470;47.350;8.718;2023-11-18T16:46:49;3.47;;;2.07;;
69323;SDS011;56470;47.350;8.718;2023-11-18T16:49:15;4.85;;;2.00;;
69323;SDS011;56470;47.350;8.718;2023-11-18T16:51:42;2.95;;;1.50;;
69323;SDS011;56470;47.350;8.718;2023-11-18T16:54:07;4.47;;;2.27;;
69323;SDS011;56470;47.350;8.718;2023-11-18T16:56:32;2.77;;;1.30;;
69323;SDS011;56470;47.350;8.718;2023-11-18T16:58:58;2.57;;;1.23;;
69323;SDS011;56470;47.350;8.718;2023-11-18T17:01:24;2.45;;;1.40;;
69323;SDS011;56470;47.350;8.718;2023-11-18T17:03:50;2.60;;;1.47;;
69323;SDS011;56470;47.350;8.718;2023-11-18T17:06:16;6.43;;;2.25;;
69323;SDS011;56470;47.350;8.718;2023-11-18T17:08:43;4.18;;;1.80;;
69323;SDS011;56470;47.350;8.718;2023-11-18T17:11:09;2.50;;;1.27;;
69323;SDS011;56470;47.350;8.718;2023-11-18T17:13:34;3.83;;;2.13;;
69323;SDS011;56470;47.350;8.718;2023-11-18T17:16:00;3.30;;;1.73;;
69323;SDS011;56470;47.350;8.718;2023-11-18T17:18:25;3.27;;;2.00;;
69323;SDS011;56470;47.350;8.718;2023-11-18T17:20:51;2.90;;;1.70;;
69323;SDS011;56470;47.350;8.718;2023-11-18T17:23:16;4.07;;;2.27;;
69323;SDS011;56470;47.350;8.718;2023-11-18T17:25:43;3.50;;;1.83;;
69323;SDS011;56470;47.350;8.718;2023-11-18T17:28:08;2.80;;;1.70;;
69323;SDS011;56470;47.350;8.718;2023-11-18T17:30:34;2.97;;;1.50;;
69323;SDS011;56470;47.350;8.718;2023-11-18T17:33:07;3.83;;;2.07;;
69323;SDS011;56470;47.350;8.718;2023-11-18T17:35:35;4.50;;;1.95;;
69323;SDS011;56470;47.350;8.718;2023-11-18T17:38:01;2.67;;;1.93;;
69323;SDS011;56470;47.350;8.718;2023-11-18T17:40:26;3.22;;;2.05;;
69323;SDS011;56470;47.350;8.718;2023-11-18T17:42:52;2.17;;;1.07;;
69323;SDS011;56470;47.350;8.718;2023-11-18T17:45:17;1.90;;;1.17;;
69323;SDS011;56470;47.350;8.718;2023-11-18T17:47:43;1.60;;;1.15;;
69323;SDS011;56470;47.350;8.718;2023-11-18T17:50:09;2.63;;;1.33;;
69323;SDS011;56470;47.350;8.718;2023-11-18T17:52:43;2.30;;;1.90;;
69323;SDS011;56470;47.350;8.718;2023-11-18T17:55:10;2.03;;;1.42;;
69323;SDS011;56470;47.350;8.718;2023-11-18T17:57:39;2.05;;;1.25;;
69323;SDS011;56470;47.350;8.718;2023-11-18T18:00:12;2.33;;;1.42;;
69323;SDS011;56470;47.350;8.718;2023-11-18T18:02:44;2.57;;;1.10;;
69323;SDS011;56470;47.350;8.718;2023-11-18T18:05:10;4.32;;;1.88;;
69323;SDS011;56470;47.350;8.718;2023-11-18T18:07:38;1.90;;;1.42;;
69323;SDS011;56470;47.350;8.718;2023-11-18T18:10:04;2.17;;;1.23;;